sensor_id;sensor_type;location;lat;lon;timestamp;pressure;altitude;pressure_sealevel;temperature;humidity
48089;BME280;33867;50.314;7.802;2022-11-11T00:01:55;101911.97;;;4.18;nan
48089;BME280;33867;50.314;7.802;2022-11-11T00:05:33;101915.69;;;4.14;nan
48089;BME280;33867;50.314;7.802;2022-11-11T00:09:12;101930.56;;;4.20;nan
48089;BME280;33867;50.314;7.802;2022-11-11T00:12:50;101939.88;;;4.09;nan
48089;BME280;33867;50.314;7.802;2022-11-11T00:16:27;101946.16;;;4.08;nan
48089;BME280;33867;50.314;7.802;2022-11-11T00:20:25;101932.09;;;4.05;nan
48089;BME280;33867;50.314;7.802;2022-11-11T00:28:19;101933.25;;;4.20;nan
48089;BME280;33867;50.314;7.802;2022-11-11T00:31:57;101929.66;;;4.21;nan
48089;BME280;33867;50.314;7.802;2022-11-11T00:35:53;101946.69;;;4.38;nan
48089;BME280;33867;50.314;7.802;2022-11-11T00:39:31;101941.88;;;4.26;nan
48089;BME280;33867;50.314;7.802;2022-11-11T00:43:10;101943.19;;;4.36;nan
48089;BME280;33867;50.314;7.802;2022-11-11T00:46:47;101942.53;;;4.31;nan
48089;BME280;33867;50.314;7.802;2022-11-11T00:50:48;101937.69;;;4.41;nan
48089;BME280;33867;50.314;7.802;2022-11-11T00:54:52;101937.25;;;4.30;nan
48089;BME280;33867;50.314;7.802;2022-11-11T00:58:30;101931.13;;;4.48;nan
48089;BME280;33867;50.314;7.802;2022-11-11T01:02:08;101918.00;;;4.64;nan
48089;BME280;33867;50.314;7.802;2022-11-11T01:05:45;101913.50;;;4.85;nan
48089;BME280;33867;50.314;7.802;2022-11-11T01:09:24;101920.25;;;4.73;nan
48089;BME280;33867;50.314;7.802;2022-11-11T01:13:16;101921.16;;;4.74;nan
48089;BME280;33867;50.314;7.802;2022-11-11T01:16:55;101915.59;;;4.78;nan
48089;BME280;33867;50.314;7.802;2022-11-11T01:20:33;101908.59;;;4.35;nan
48089;BME280;33867;50.314;7.802;2022-11-11T01:24:11;101910.00;;;4.64;nan
48089;BME280;33867;50.314;7.802;2022-11-11T01:27:49;101910.91;;;4.83;nan
48089;BME280;33867;50.314;7.802;2022-11-11T01:31:27;101912.63;;;4.84;nan
48089;BME280;33867;50.314;7.802;2022-11-11T01:35:06;101910.50;;;4.92;nan
48089;BME280;33867;50.314;7.802;2022-11-11T01:38:48;101923.69;;;4.95;nan
48089;BME280;33867;50.314;7.802;2022-11-11T01:42:26;101915.44;;;5.02;nan
48089;BME280;33867;50.314;7.802;2022-11-11T01:46:04;101906.19;;;5.09;nan
48089;BME280;33867;50.314;7.802;2022-11-11T01:49:55;101902.78;;;5.05;nan
48089;BME280;33867;50.314;7.802;2022-11-11T01:53:37;101900.97;;;4.87;nan
48089;BME280;33867;50.314;7.802;2022-11-11T01:57:22;101905.06;;;4.75;nan
48089;BME280;33867;50.314;7.802;2022-11-11T02:01:02;101907.03;;;4.90;nan
48089;BME280;33867;50.314;7.802;2022-11-11T02:04:40;101916.84;;;4.90;nan
48089;BME280;33867;50.314;7.802;2022-11-11T02:08:37;101921.16;;;4.92;nan
48089;BME280;33867;50.314;7.802;2022-11-11T02:12:15;101914.63;;;4.99;nan
48089;BME280;33867;50.314;7.802;2022-11-11T02:16:11;101913.78;;;5.18;nan
48089;BME280;33867;50.314;7.802;2022-11-11T02:19:53;101907.63;;;5.16;nan
48089;BME280;33867;50.314;7.802;2022-11-11T02:23:43;101915.72;;;5.14;nan
48089;BME280;33867;50.314;7.802;2022-11-11T02:27:23;101912.97;;;5.16;nan
48089;BME280;33867;50.314;7.802;2022-11-11T02:31:03;101920.03;;;5.17;nan
48089;BME280;33867;50.314;7.802;2022-11-11T02:34:41;101925.94;;;5.05;nan
48089;BME280;33867;50.314;7.802;2022-11-11T02:38:19;101928.13;;;5.15;nan
48089;BME280;33867;50.314;7.802;2022-11-11T02:41:57;101942.56;;;5.30;nan
48089;BME280;33867;50.314;7.802;2022-11-11T02:45:35;101944.03;;;5.37;nan
48089;BME280;33867;50.314;7.802;2022-11-11T02:49:12;101944.56;;;5.45;nan
48089;BME280;33867;50.314;7.802;2022-11-11T02:52:50;101945.47;;;5.44;nan
48089;BME280;33867;50.314;7.802;2022-11-11T02:56:28;101948.00;;;5.47;nan
48089;BME280;33867;50.314;7.802;2022-11-11T03:00:25;101957.47;;;5.54;nan
48089;BME280;33867;50.314;7.802;2022-11-11T03:04:03;101956.38;;;5.58;nan
48089;BME280;33867;50.314;7.802;2022-11-11T03:07:41;101947.59;;;5.56;nan
48089;BME280;33867;50.314;7.802;2022-11-11T03:11:20;101954.41;;;5.43;nan
48089;BME280;33867;50.314;7.802;2022-11-11T03:15:05;101942.31;;;5.36;nan
48089;BME280;33867;50.314;7.802;2022-11-11T03:18:43;101943.63;;;5.46;nan
48089;BME280;33867;50.314;7.802;2022-11-11T03:22:20;101943.75;;;5.62;nan
48089;BME280;33867;50.314;7.802;2022-11-11T03:25:58;101954.06;;;5.51;nan
48089;BME280;33867;50.314;7.802;2022-11-11T03:29:36;101955.50;;;5.39;nan
48089;BME280;33867;50.314;7.802;2022-11-11T03:33:16;101956.78;;;5.68;nan
48089;BME280;33867;50.314;7.802;2022-11-11T03:36:54;101964.47;;;5.76;nan
48089;BME280;33867;50.314;7.802;2022-11-11T03:40:53;101964.78;;;5.70;nan
48089;BME280;33867;50.314;7.802;2022-11-11T03:44:31;101959.69;;;5.64;nan
48089;BME280;33867;50.314;7.802;2022-11-11T03:48:10;101962.22;;;5.67;nan
48089;BME280;33867;50.314;7.802;2022-11-11T03:51:48;101975.22;;;5.74;nan
48089;BME280;33867;50.314;7.802;2022-11-11T03:55:27;101976.53;;;5.84;nan
48089;BME280;33867;50.314;7.802;2022-11-11T03:59:05;101977.53;;;5.82;nan
48089;BME280;33867;50.314;7.802;2022-11-11T04:02:43;101978.91;;;5.72;nan
48089;BME280;33867;50.314;7.802;2022-11-11T04:06:40;101969.75;;;5.58;nan
48089;BME280;33867;50.314;7.802;2022-11-11T04:10:36;101973.78;;;5.67;nan
48089;BME280;33867;50.314;7.802;2022-11-11T04:14:14;101971.84;;;5.71;nan
48089;BME280;33867;50.314;7.802;2022-11-11T04:18:11;101961.19;;;5.88;nan
48089;BME280;33867;50.314;7.802;2022-11-11T04:21:49;101962.44;;;5.81;nan
48089;BME280;33867;50.314;7.802;2022-11-11T04:25:27;101958.16;;;5.77;nan
48089;BME280;33867;50.314;7.802;2022-11-11T04:29:24;101966.03;;;5.80;nan
48089;BME280;33867;50.314;7.802;2022-11-11T04:33:08;101963.78;;;5.90;nan
48089;BME280;33867;50.314;7.802;2022-11-11T04:36:46;101968.44;;;5.86;nan
48089;BME280;33867;50.314;7.802;2022-11-11T04:40:24;101974.94;;;5.80;nan
48089;BME280;33867;50.314;7.802;2022-11-11T04:44:21;101966.38;;;5.93;nan
48089;BME280;33867;50.314;7.802;2022-11-11T04:48:18;101966.00;;;5.81;nan
48089;BME280;33867;50.314;7.802;2022-11-11T04:51:57;101964.81;;;5.87;nan
48089;BME280;33867;50.314;7.802;2022-11-11T04:55:54;101964.63;;;5.73;nan
48089;BME280;33867;50.314;7.802;2022-11-11T04:59:51;101963.81;;;5.71;nan
48089;BME280;33867;50.314;7.802;2022-11-11T05:03:28;101960.72;;;5.61;nan
48089;BME280;33867;50.314;7.802;2022-11-11T05:07:06;101966.56;;;5.69;nan
48089;BME280;33867;50.314;7.802;2022-11-11T05:11:13;101963.38;;;5.80;nan
48089;BME280;33867;50.314;7.802;2022-11-11T05:14:51;101963.00;;;5.87;nan
48089;BME280;33867;50.314;7.802;2022-11-11T05:18:48;101956.00;;;5.85;nan
48089;BME280;33867;50.314;7.802;2022-11-11T05:22:44;101961.00;;;5.74;nan
48089;BME280;33867;50.314;7.802;2022-11-11T05:26:22;101967.44;;;5.70;nan
48089;BME280;33867;50.314;7.802;2022-11-11T05:29:59;101964.53;;;5.74;nan
48089;BME280;33867;50.314;7.802;2022-11-11T05:33:37;101966.94;;;5.62;nan
48089;BME280;33867;50.314;7.802;2022-11-11T05:37:15;101973.06;;;5.64;nan
48089;BME280;33867;50.314;7.802;2022-11-11T05:40:54;101979.00;;;5.70;nan
48089;BME280;33867;50.314;7.802;2022-11-11T05:44:32;101973.06;;;5.64;nan
48089;BME280;33867;50.314;7.802;2022-11-11T05:48:10;101985.56;;;5.63;nan
48089;BME280;33867;50.314;7.802;2022-11-11T05:51:48;101992.00;;;5.59;nan
48089;BME280;33867;50.314;7.802;2022-11-11T05:55:26;101995.56;;;5.39;nan
48089;BME280;33867;50.314;7.802;2022-11-11T05:59:05;102003.69;;;5.56;nan
48089;BME280;33867;50.314;7.802;2022-11-11T06:02:43;102013.06;;;5.46;nan
48089;BME280;33867;50.314;7.802;2022-11-11T06:06:20;102003.50;;;5.41;nan
48089;BME280;33867;50.314;7.802;2022-11-11T06:09:58;102002.19;;;5.31;nan
48089;BME280;33867;50.314;7.802;2022-11-11T06:13:56;102010.47;;;5.45;nan
48089;BME280;33867;50.314;7.802;2022-11-11T06:17:34;102015.44;;;5.52;nan
48089;BME280;33867;50.314;7.802;2022-11-11T06:21:13;102021.56;;;5.54;nan
48089;BME280;33867;50.314;7.802;2022-11-11T06:24:51;102025.34;;;5.50;nan
48089;BME280;33867;50.314;7.802;2022-11-11T06:28:54;102021.66;;;5.53;nan
48089;BME280;33867;50.314;7.802;2022-11-11T06:32:32;102020.06;;;5.49;nan
48089;BME280;33867;50.314;7.802;2022-11-11T06:36:12;102025.19;;;5.53;nan
48089;BME280;33867;50.314;7.802;2022-11-11T06:39:50;102018.41;;;5.46;nan
48089;BME280;33867;50.314;7.802;2022-11-11T06:43:28;102022.28;;;5.39;nan
48089;BME280;33867;50.314;7.802;2022-11-11T06:47:06;102021.50;;;5.17;nan
48089;BME280;33867;50.314;7.802;2022-11-11T06:50:44;102028.16;;;4.88;nan
48089;BME280;33867;50.314;7.802;2022-11-11T06:54:22;102033.56;;;4.86;nan
48089;BME280;33867;50.314;7.802;2022-11-11T06:58:08;102039.63;;;4.90;nan
48089;BME280;33867;50.314;7.802;2022-11-11T07:01:46;102038.94;;;5.05;nan
48089;BME280;33867;50.314;7.802;2022-11-11T07:05:24;102050.97;;;5.15;nan
48089;BME280;33867;50.314;7.802;2022-11-11T07:09:01;102054.75;;;5.30;nan
48089;BME280;33867;50.314;7.802;2022-11-11T07:12:40;102055.94;;;5.43;nan
48089;BME280;33867;50.314;7.802;2022-11-11T07:16:18;102055.81;;;5.46;nan
48089;BME280;33867;50.314;7.802;2022-11-11T07:19:55;102065.88;;;5.60;nan
48089;BME280;33867;50.314;7.802;2022-11-11T07:23:33;102064.31;;;5.54;nan
48089;BME280;33867;50.314;7.802;2022-11-11T07:27:11;102074.75;;;5.61;nan
48089;BME280;33867;50.314;7.802;2022-11-11T07:30:49;102067.44;;;5.64;nan
48089;BME280;33867;50.314;7.802;2022-11-11T07:34:26;102074.34;;;5.70;nan
48089;BME280;33867;50.314;7.802;2022-11-11T07:38:05;102071.00;;;5.65;nan
48089;BME280;33867;50.314;7.802;2022-11-11T07:41:43;102078.13;;;5.64;nan
48089;BME280;33867;50.314;7.802;2022-11-11T07:45:22;102088.34;;;5.75;nan
48089;BME280;33867;50.314;7.802;2022-11-11T07:49:00;102094.56;;;5.75;nan
48089;BME280;33867;50.314;7.802;2022-11-11T07:52:38;102090.94;;;5.76;nan
48089;BME280;33867;50.314;7.802;2022-11-11T07:56:16;102095.41;;;5.76;nan
48089;BME280;33867;50.314;7.802;2022-11-11T07:59:54;102100.63;;;5.79;nan
48089;BME280;33867;50.314;7.802;2022-11-11T08:03:32;102107.19;;;5.72;nan
48089;BME280;33867;50.314;7.802;2022-11-11T08:07:10;102108.00;;;5.74;nan
48089;BME280;33867;50.314;7.802;2022-11-11T08:10:49;102111.19;;;5.82;nan
48089;BME280;33867;50.314;7.802;2022-11-11T08:14:27;102114.66;;;5.84;nan
48089;BME280;33867;50.314;7.802;2022-11-11T08:18:05;102117.59;;;5.78;nan
48089;BME280;33867;50.314;7.802;2022-11-11T08:21:42;102112.69;;;5.87;nan
48089;BME280;33867;50.314;7.802;2022-11-11T08:25:20;102116.44;;;6.04;nan
48089;BME280;33867;50.314;7.802;2022-11-11T08:29:00;102115.72;;;6.00;nan
48089;BME280;33867;50.314;7.802;2022-11-11T08:32:37;102111.41;;;6.17;nan
48089;BME280;33867;50.314;7.802;2022-11-11T08:36:15;102109.09;;;6.28;nan
48089;BME280;33867;50.314;7.802;2022-11-11T08:39:53;102117.81;;;6.31;nan
48089;BME280;33867;50.314;7.802;2022-11-11T08:43:32;102102.56;;;6.33;nan
48089;BME280;33867;50.314;7.802;2022-11-11T08:47:10;102100.94;;;6.48;nan
48089;BME280;33867;50.314;7.802;2022-11-11T08:50:51;102100.66;;;6.54;nan
48089;BME280;33867;50.314;7.802;2022-11-11T08:54:29;102099.44;;;6.42;nan
48089;BME280;33867;50.314;7.802;2022-11-11T08:58:07;102097.03;;;6.55;nan
48089;BME280;33867;50.314;7.802;2022-11-11T09:01:45;102094.84;;;6.63;nan
48089;BME280;33867;50.314;7.802;2022-11-11T09:05:23;102089.00;;;6.55;nan
48089;BME280;33867;50.314;7.802;2022-11-11T09:09:01;102085.47;;;6.72;nan
48089;BME280;33867;50.314;7.802;2022-11-11T09:12:39;102092.19;;;6.63;nan
48089;BME280;33867;50.314;7.802;2022-11-11T09:16:16;102095.91;;;6.95;nan
48089;BME280;33867;50.314;7.802;2022-11-11T09:19:55;102095.81;;;6.80;nan
48089;BME280;33867;50.314;7.802;2022-11-11T09:23:33;102091.19;;;7.00;nan
48089;BME280;33867;50.314;7.802;2022-11-11T09:27:11;102085.50;;;7.41;nan
48089;BME280;33867;50.314;7.802;2022-11-11T09:30:48;102088.59;;;7.67;nan
48089;BME280;33867;50.314;7.802;2022-11-11T09:34:26;102099.13;;;7.19;nan
48089;BME280;33867;50.314;7.802;2022-11-11T09:38:04;102088.97;;;7.76;nan
48089;BME280;33867;50.314;7.802;2022-11-11T09:42:07;102091.44;;;8.12;nan
48089;BME280;33867;50.314;7.802;2022-11-11T09:50:11;102094.94;;;8.46;nan
48089;BME280;33867;50.314;7.802;2022-11-11T09:53:54;102101.50;;;8.40;nan
48089;BME280;33867;50.314;7.802;2022-11-11T09:57:38;102098.63;;;8.75;nan
48089;BME280;33867;50.314;7.802;2022-11-11T10:01:25;102100.34;;;8.29;nan
48089;BME280;33867;50.314;7.802;2022-11-11T10:05:11;102098.47;;;8.31;nan
48089;BME280;33867;50.314;7.802;2022-11-11T10:08:57;102095.94;;;8.12;nan
48089;BME280;33867;50.314;7.802;2022-11-11T10:12:45;102091.06;;;9.42;nan
48089;BME280;33867;50.314;7.802;2022-11-11T10:20:31;102088.13;;;10.98;nan
48089;BME280;33867;50.314;7.802;2022-11-11T10:24:16;102077.59;;;10.68;nan
48089;BME280;33867;50.314;7.802;2022-11-11T10:27:55;102067.91;;;11.18;nan
48089;BME280;33867;50.314;7.802;2022-11-11T10:31:34;102076.28;;;12.52;nan
48089;BME280;33867;50.314;7.802;2022-11-11T10:35:30;102071.13;;;13.08;nan
48089;BME280;33867;50.314;7.802;2022-11-11T10:39:10;102076.56;;;11.99;nan
48089;BME280;33867;50.314;7.802;2022-11-11T10:42:52;102076.41;;;12.14;nan
48089;BME280;33867;50.314;7.802;2022-11-11T10:46:41;102066.94;;;13.28;nan
48089;BME280;33867;50.314;7.802;2022-11-11T10:50:25;102064.94;;;13.19;nan
48089;BME280;33867;50.314;7.802;2022-11-11T10:54:18;102067.06;;;13.02;nan
48089;BME280;33867;50.314;7.802;2022-11-11T10:58:09;102071.13;;;12.12;nan
48089;BME280;33867;50.314;7.802;2022-11-11T11:01:56;102068.13;;;11.91;nan
48089;BME280;33867;50.314;7.802;2022-11-11T11:09:38;102059.06;;;11.41;nan
48089;BME280;33867;50.314;7.802;2022-11-11T11:13:42;102047.13;;;10.80;nan
48089;BME280;33867;50.314;7.802;2022-11-11T11:17:26;102047.09;;;10.68;nan
48089;BME280;33867;50.314;7.802;2022-11-11T11:21:07;102032.03;;;10.78;nan
48089;BME280;33867;50.314;7.802;2022-11-11T11:24:45;102025.22;;;10.72;nan
48089;BME280;33867;50.314;7.802;2022-11-11T11:28:23;102018.88;;;10.86;nan
48089;BME280;33867;50.314;7.802;2022-11-11T11:35:48;102020.56;;;11.01;nan
48089;BME280;33867;50.314;7.802;2022-11-11T11:39:34;102018.72;;;11.02;nan
48089;BME280;33867;50.314;7.802;2022-11-11T11:43:33;102023.50;;;10.71;nan
48089;BME280;33867;50.314;7.802;2022-11-11T11:51:23;102024.94;;;10.50;nan
48089;BME280;33867;50.314;7.802;2022-11-11T11:55:25;102020.50;;;10.49;nan
48089;BME280;33867;50.314;7.802;2022-11-11T12:07:17;102009.34;;;10.55;nan
48089;BME280;33867;50.314;7.802;2022-11-11T12:11:08;102004.41;;;10.74;nan
48089;BME280;33867;50.314;7.802;2022-11-11T12:14:54;102001.22;;;10.95;nan
48089;BME280;33867;50.314;7.802;2022-11-11T12:30:11;101993.88;;;11.73;nan
48089;BME280;33867;50.314;7.802;2022-11-11T12:34:19;101987.88;;;12.30;nan
48089;BME280;33867;50.314;7.802;2022-11-11T12:38:11;101983.84;;;12.12;nan
48089;BME280;33867;50.314;7.802;2022-11-11T12:49:54;101971.50;;;13.48;nan
48089;BME280;33867;50.314;7.802;2022-11-11T12:53:36;101961.91;;;13.78;nan
48089;BME280;33867;50.314;7.802;2022-11-11T13:01:37;101957.47;;;14.20;nan
48089;BME280;33867;50.314;7.802;2022-11-11T13:05:25;101957.84;;;14.26;nan
48089;BME280;33867;50.314;7.802;2022-11-11T13:09:13;101955.09;;;14.38;nan
48089;BME280;33867;50.314;7.802;2022-11-11T13:13:19;101948.13;;;14.56;nan
48089;BME280;33867;50.314;7.802;2022-11-11T13:17:00;101956.59;;;14.62;nan
48089;BME280;33867;50.314;7.802;2022-11-11T13:24:21;101959.13;;;15.17;nan
48089;BME280;33867;50.314;7.802;2022-11-11T13:28:14;101950.78;;;15.30;nan
48089;BME280;33867;50.314;7.802;2022-11-11T13:31:54;101959.16;;;15.57;nan
48089;BME280;33867;50.314;7.802;2022-11-11T13:35:50;101966.06;;;15.31;nan
48089;BME280;33867;50.314;7.802;2022-11-11T13:39:37;101972.41;;;14.78;nan
48089;BME280;33867;50.314;7.802;2022-11-11T13:43:21;101970.75;;;14.66;nan
48089;BME280;33867;50.314;7.802;2022-11-11T13:47:06;101972.75;;;14.64;nan
48089;BME280;33867;50.314;7.802;2022-11-11T13:50:48;101977.75;;;14.48;nan
48089;BME280;33867;50.314;7.802;2022-11-11T13:54:35;101981.88;;;14.63;nan
48089;BME280;33867;50.314;7.802;2022-11-11T13:58:22;101984.78;;;14.71;nan
48089;BME280;33867;50.314;7.802;2022-11-11T14:02:33;101981.00;;;14.62;nan
48089;BME280;33867;50.314;7.802;2022-11-11T14:09:57;101978.22;;;14.42;nan
48089;BME280;33867;50.314;7.802;2022-11-11T14:13:37;101984.66;;;14.29;nan
48089;BME280;33867;50.314;7.802;2022-11-11T14:17:17;101983.31;;;14.67;nan
48089;BME280;33867;50.314;7.802;2022-11-11T14:20:55;101979.69;;;14.78;nan
48089;BME280;33867;50.314;7.802;2022-11-11T14:36:15;101964.81;;;14.40;nan
48089;BME280;33867;50.314;7.802;2022-11-11T14:39:55;101969.28;;;14.30;nan
48089;BME280;33867;50.314;7.802;2022-11-11T14:43:38;101956.91;;;14.05;nan
48089;BME280;33867;50.314;7.802;2022-11-11T14:47:22;101962.38;;;13.83;nan
48089;BME280;33867;50.314;7.802;2022-11-11T14:51:00;101958.22;;;13.67;nan
48089;BME280;33867;50.314;7.802;2022-11-11T14:54:49;101960.06;;;13.22;nan
48089;BME280;33867;50.314;7.802;2022-11-11T14:58:33;101951.78;;;13.12;nan
48089;BME280;33867;50.314;7.802;2022-11-11T15:02:20;101962.00;;;12.63;nan
48089;BME280;33867;50.314;7.802;2022-11-11T15:06:20;101958.22;;;12.41;nan
48089;BME280;33867;50.314;7.802;2022-11-11T15:10:19;101957.91;;;12.22;nan
48089;BME280;33867;50.314;7.802;2022-11-11T15:25:56;101947.94;;;11.49;nan
48089;BME280;33867;50.314;7.802;2022-11-11T15:33:40;101959.50;;;10.88;nan
48089;BME280;33867;50.314;7.802;2022-11-11T15:37:21;101953.53;;;10.57;nan
48089;BME280;33867;50.314;7.802;2022-11-11T15:40:59;101959.72;;;10.32;nan
48089;BME280;33867;50.314;7.802;2022-11-11T15:44:38;101960.91;;;10.41;nan
48089;BME280;33867;50.314;7.802;2022-11-11T15:48:18;101961.53;;;9.90;nan
48089;BME280;33867;50.314;7.802;2022-11-11T15:51:57;101965.50;;;9.85;nan
48089;BME280;33867;50.314;7.802;2022-11-11T15:55:36;101966.34;;;10.00;nan
48089;BME280;33867;50.314;7.802;2022-11-11T15:59:17;101960.41;;;9.80;nan
48089;BME280;33867;50.314;7.802;2022-11-11T16:02:56;101970.38;;;9.51;nan
48089;BME280;33867;50.314;7.802;2022-11-11T16:06:35;101975.94;;;9.48;nan
48089;BME280;33867;50.314;7.802;2022-11-11T16:10:36;101982.09;;;9.50;nan
48089;BME280;33867;50.314;7.802;2022-11-11T16:14:25;101972.56;;;9.45;nan
48089;BME280;33867;50.314;7.802;2022-11-11T16:18:13;101979.56;;;9.33;nan
48089;BME280;33867;50.314;7.802;2022-11-11T16:22:04;101980.63;;;9.30;nan
48089;BME280;33867;50.314;7.802;2022-11-11T16:25:45;101975.56;;;9.26;nan
48089;BME280;33867;50.314;7.802;2022-11-11T16:29:32;101978.81;;;8.72;nan
48089;BME280;33867;50.314;7.802;2022-11-11T16:37:09;101995.19;;;8.38;nan
48089;BME280;33867;50.314;7.802;2022-11-11T16:40:48;101994.16;;;8.40;nan
48089;BME280;33867;50.314;7.802;2022-11-11T16:52:17;101983.41;;;8.25;nan
48089;BME280;33867;50.314;7.802;2022-11-11T16:55:56;101994.75;;;8.14;nan
48089;BME280;33867;50.314;7.802;2022-11-11T16:59:49;101992.78;;;8.02;nan
48089;BME280;33867;50.314;7.802;2022-11-11T17:03:29;101989.84;;;7.90;nan
48089;BME280;33867;50.314;7.802;2022-11-11T17:07:29;101993.84;;;7.83;nan
48089;BME280;33867;50.314;7.802;2022-11-11T17:15:10;102013.16;;;7.57;nan
48089;BME280;33867;50.314;7.802;2022-11-11T17:18:49;102015.06;;;7.55;nan
48089;BME280;33867;50.314;7.802;2022-11-11T17:22:27;102010.75;;;7.52;nan
48089;BME280;33867;50.314;7.802;2022-11-11T17:26:04;102015.56;;;7.46;nan
48089;BME280;33867;50.314;7.802;2022-11-11T17:29:42;102010.66;;;7.21;nan
48089;BME280;33867;50.314;7.802;2022-11-11T17:33:25;102014.19;;;7.21;nan
48089;BME280;33867;50.314;7.802;2022-11-11T17:37:04;102011.69;;;7.18;nan
48089;BME280;33867;50.314;7.802;2022-11-11T17:40:45;102022.97;;;7.08;nan
48089;BME280;33867;50.314;7.802;2022-11-11T17:44:23;102023.75;;;7.10;nan
48089;BME280;33867;50.314;7.802;2022-11-11T17:48:01;102021.41;;;7.03;nan
48089;BME280;33867;50.314;7.802;2022-11-11T17:51:39;102020.63;;;7.01;nan
48089;BME280;33867;50.314;7.802;2022-11-11T17:55:17;102016.59;;;6.93;nan
48089;BME280;33867;50.314;7.802;2022-11-11T17:58:55;102016.13;;;6.85;nan
48089;BME280;33867;50.314;7.802;2022-11-11T18:07:28;102016.84;;;6.54;nan
48089;BME280;33867;50.314;7.802;2022-11-11T18:11:07;102020.66;;;6.48;nan
48089;BME280;33867;50.314;7.802;2022-11-11T18:14:45;102022.41;;;6.49;nan
48089;BME280;33867;50.314;7.802;2022-11-11T18:18:24;102031.81;;;6.39;nan
48089;BME280;33867;50.314;7.802;2022-11-11T18:22:02;102030.41;;;6.32;nan
48089;BME280;33867;50.314;7.802;2022-11-11T18:25:41;102036.03;;;6.26;nan
48089;BME280;33867;50.314;7.802;2022-11-11T18:29:19;102035.56;;;6.18;nan
48089;BME280;33867;50.314;7.802;2022-11-11T18:32:57;102025.50;;;6.23;nan
48089;BME280;33867;50.314;7.802;2022-11-11T18:36:35;102036.78;;;6.10;nan
48089;BME280;33867;50.314;7.802;2022-11-11T18:40:13;102037.22;;;6.01;nan
48089;BME280;33867;50.314;7.802;2022-11-11T18:43:52;102035.81;;;5.94;nan
48089;BME280;33867;50.314;7.802;2022-11-11T18:47:30;102040.59;;;5.86;nan
48089;BME280;33867;50.314;7.802;2022-11-11T18:51:11;102033.59;;;5.83;nan
48089;BME280;33867;50.314;7.802;2022-11-11T18:54:49;102039.97;;;5.81;nan
48089;BME280;33867;50.314;7.802;2022-11-11T18:58:27;102043.78;;;5.75;nan
48089;BME280;33867;50.314;7.802;2022-11-11T19:02:07;102045.81;;;5.70;nan
48089;BME280;33867;50.314;7.802;2022-11-11T19:05:45;102044.56;;;5.58;nan
48089;BME280;33867;50.314;7.802;2022-11-11T19:09:23;102053.63;;;5.54;nan
48089;BME280;33867;50.314;7.802;2022-11-11T19:13:01;102064.63;;;5.48;nan
48089;BME280;33867;50.314;7.802;2022-11-11T19:16:39;102067.38;;;5.47;nan
48089;BME280;33867;50.314;7.802;2022-11-11T19:20:18;102074.44;;;5.48;nan
48089;BME280;33867;50.314;7.802;2022-11-11T19:23:57;102077.19;;;5.46;nan
48089;BME280;33867;50.314;7.802;2022-11-11T19:27:35;102078.13;;;5.25;nan
48089;BME280;33867;50.314;7.802;2022-11-11T19:31:15;102079.56;;;5.32;nan
48089;BME280;33867;50.314;7.802;2022-11-11T19:34:53;102077.97;;;5.28;nan
48089;BME280;33867;50.314;7.802;2022-11-11T19:38:31;102075.47;;;5.25;nan
48089;BME280;33867;50.314;7.802;2022-11-11T19:42:09;102078.59;;;5.35;nan
48089;BME280;33867;50.314;7.802;2022-11-11T19:45:47;102077.91;;;5.50;nan
48089;BME280;33867;50.314;7.802;2022-11-11T19:49:25;102065.38;;;5.71;nan
48089;BME280;33867;50.314;7.802;2022-11-11T19:53:03;102070.72;;;5.71;nan
48089;BME280;33867;50.314;7.802;2022-11-11T19:56:41;102073.88;;;5.79;nan
48089;BME280;33867;50.314;7.802;2022-11-11T20:00:19;102078.81;;;5.88;nan
48089;BME280;33867;50.314;7.802;2022-11-11T20:03:57;102083.53;;;5.83;nan
48089;BME280;33867;50.314;7.802;2022-11-11T20:07:35;102091.56;;;6.02;nan
48089;BME280;33867;50.314;7.802;2022-11-11T20:11:13;102092.59;;;6.18;nan
48089;BME280;33867;50.314;7.802;2022-11-11T20:14:51;102094.53;;;6.14;nan
48089;BME280;33867;50.314;7.802;2022-11-11T20:18:30;102096.97;;;6.38;nan
48089;BME280;33867;50.314;7.802;2022-11-11T20:22:09;102096.63;;;6.45;nan
48089;BME280;33867;50.314;7.802;2022-11-11T20:25:48;102109.78;;;6.31;nan
48089;BME280;33867;50.314;7.802;2022-11-11T20:29:26;102111.81;;;6.26;nan
48089;BME280;33867;50.314;7.802;2022-11-11T20:33:05;102119.25;;;6.38;nan
48089;BME280;33867;50.314;7.802;2022-11-11T20:36:43;102105.50;;;6.46;nan
48089;BME280;33867;50.314;7.802;2022-11-11T20:40:21;102119.03;;;6.43;nan
48089;BME280;33867;50.314;7.802;2022-11-11T20:43:59;102113.59;;;6.44;nan
48089;BME280;33867;50.314;7.802;2022-11-11T20:47:37;102120.41;;;6.33;nan
48089;BME280;33867;50.314;7.802;2022-11-11T20:51:20;102125.34;;;6.42;nan
48089;BME280;33867;50.314;7.802;2022-11-11T20:54:58;102127.81;;;6.28;nan
48089;BME280;33867;50.314;7.802;2022-11-11T20:58:37;102120.19;;;6.37;nan
48089;BME280;33867;50.314;7.802;2022-11-11T21:02:15;102110.31;;;6.39;nan
48089;BME280;33867;50.314;7.802;2022-11-11T21:05:59;102109.19;;;6.43;nan
48089;BME280;33867;50.314;7.802;2022-11-11T21:09:37;102112.44;;;6.50;nan
48089;BME280;33867;50.314;7.802;2022-11-11T21:13:15;102111.09;;;6.41;nan
48089;BME280;33867;50.314;7.802;2022-11-11T21:16:52;102113.09;;;6.55;nan
48089;BME280;33867;50.314;7.802;2022-11-11T21:20:30;102112.97;;;6.21;nan
48089;BME280;33867;50.314;7.802;2022-11-11T21:24:08;102114.44;;;6.28;nan
48089;BME280;33867;50.314;7.802;2022-11-11T21:27:46;102107.28;;;5.89;nan
48089;BME280;33867;50.314;7.802;2022-11-11T21:31:26;102109.50;;;5.40;nan
48089;BME280;33867;50.314;7.802;2022-11-11T21:35:04;102115.69;;;5.41;nan
48089;BME280;33867;50.314;7.802;2022-11-11T21:38:42;102101.81;;;5.33;nan
48089;BME280;33867;50.314;7.802;2022-11-11T21:42:20;102108.97;;;5.32;nan
48089;BME280;33867;50.314;7.802;2022-11-11T21:46:02;102100.06;;;5.72;nan
48089;BME280;33867;50.314;7.802;2022-11-11T21:49:41;102098.38;;;5.70;nan
48089;BME280;33867;50.314;7.802;2022-11-11T21:53:18;102101.63;;;5.57;nan
48089;BME280;33867;50.314;7.802;2022-11-11T21:56:56;102104.50;;;5.12;nan